Weather at Mavrovica Airfield [CLOSED]

Public forecast

Using degrees Celsius for public forecast. Weather courtesy of forecast.io.

Closest aviation weather report (METAR) to Mavrovica Airfield

Closest report is Skopje International Airport, 15.1 nm (28.0 km) W.

2024/04/16 17:50 (retrieved 16 minutes ago)

LWSK 161750Z VRB02KT 9999 -RA SCT050 OVC080 17/14 Q1005 NOSIG

Closest aviation forecast (TAF) to Mavrovica Airfield

Closest forecast is Skopje International Airport, 15.1 nm (28.0 km) W.

2024/04/16 18:06 (retrieved 10 seconds ago)

TAF LWSK 161705Z 1618/1718 28008KT 9999 FEW060 OVC090 TEMPO 1618/1624 17015KT RA BKN035 OVC050 PROB40 TEMPO 1711/1716 VRB20KT TSRA FEW035CB OVC040